sensor_id;sensor_type;location;lat;lon;timestamp;P1;durP1;ratioP1;P2;durP2;ratioP2
69334;SDS011;56477;52.742;15.242;2022-08-21T00:00:25;25.07;;;15.00;;
69334;SDS011;56477;52.742;15.242;2022-08-21T00:03:05;21.83;;;12.68;;
69334;SDS011;56477;52.742;15.242;2022-08-21T00:05:33;22.02;;;13.68;;
69334;SDS011;56477;52.742;15.242;2022-08-21T00:08:01;25.58;;;13.82;;
69334;SDS011;56477;52.742;15.242;2022-08-21T00:10:28;24.55;;;14.13;;
69334;SDS011;56477;52.742;15.242;2022-08-21T00:12:54;24.87;;;12.87;;
69334;SDS011;56477;52.742;15.242;2022-08-21T00:15:25;25.23;;;14.00;;
69334;SDS011;56477;52.742;15.242;2022-08-21T00:17:52;22.85;;;12.43;;
69334;SDS011;56477;52.742;15.242;2022-08-21T00:20:19;22.85;;;13.55;;
69334;SDS011;56477;52.742;15.242;2022-08-21T00:22:46;19.90;;;12.18;;
69334;SDS011;56477;52.742;15.242;2022-08-21T00:25:13;17.40;;;11.37;;
69334;SDS011;56477;52.742;15.242;2022-08-21T00:27:40;16.98;;;11.30;;
69334;SDS011;56477;52.742;15.242;2022-08-21T00:30:08;17.48;;;11.00;;
69334;SDS011;56477;52.742;15.242;2022-08-21T00:32:36;15.65;;;9.68;;
69334;SDS011;56477;52.742;15.242;2022-08-21T00:35:04;18.92;;;10.18;;
69334;SDS011;56477;52.742;15.242;2022-08-21T00:37:32;15.00;;;9.27;;
69334;SDS011;56477;52.742;15.242;2022-08-21T00:39:58;13.43;;;8.82;;
69334;SDS011;56477;52.742;15.242;2022-08-21T00:42:25;14.80;;;8.50;;
69334;SDS011;56477;52.742;15.242;2022-08-21T00:44:53;12.70;;;7.85;;
69334;SDS011;56477;52.742;15.242;2022-08-21T00:47:19;12.23;;;7.50;;
69334;SDS011;56477;52.742;15.242;2022-08-21T00:49:45;13.15;;;7.18;;
69334;SDS011;56477;52.742;15.242;2022-08-21T00:52:13;11.68;;;6.85;;
69334;SDS011;56477;52.742;15.242;2022-08-21T00:54:46;12.27;;;7.13;;
69334;SDS011;56477;52.742;15.242;2022-08-21T00:57:15;11.97;;;6.17;;
69334;SDS011;56477;52.742;15.242;2022-08-21T00:59:47;10.18;;;6.35;;
69334;SDS011;56477;52.742;15.242;2022-08-21T01:02:16;9.35;;;5.88;;
69334;SDS011;56477;52.742;15.242;2022-08-21T01:04:43;11.18;;;5.72;;
69334;SDS011;56477;52.742;15.242;2022-08-21T01:07:10;11.73;;;5.97;;
69334;SDS011;56477;52.742;15.242;2022-08-21T01:09:36;9.90;;;5.20;;
69334;SDS011;56477;52.742;15.242;2022-08-21T01:12:03;12.68;;;5.60;;
69334;SDS011;56477;52.742;15.242;2022-08-21T01:14:29;8.23;;;4.35;;
69334;SDS011;56477;52.742;15.242;2022-08-21T01:16:56;13.68;;;4.38;;
69334;SDS011;56477;52.742;15.242;2022-08-21T01:19:24;8.70;;;3.88;;
69334;SDS011;56477;52.742;15.242;2022-08-21T01:21:51;7.97;;;5.00;;
69334;SDS011;56477;52.742;15.242;2022-08-21T01:24:19;7.15;;;4.28;;
69334;SDS011;56477;52.742;15.242;2022-08-21T01:26:45;8.20;;;4.22;;
69334;SDS011;56477;52.742;15.242;2022-08-21T01:32:08;6.82;;;3.58;;
69334;SDS011;56477;52.742;15.242;2022-08-21T01:34:37;6.93;;;3.70;;
69334;SDS011;56477;52.742;15.242;2022-08-21T01:37:05;8.40;;;3.45;;
69334;SDS011;56477;52.742;15.242;2022-08-21T01:39:32;5.55;;;3.40;;
69334;SDS011;56477;52.742;15.242;2022-08-21T01:41:58;8.27;;;2.90;;
69334;SDS011;56477;52.742;15.242;2022-08-21T01:44:24;7.63;;;3.17;;
69334;SDS011;56477;52.742;15.242;2022-08-21T01:46:51;6.43;;;3.27;;
69334;SDS011;56477;52.742;15.242;2022-08-21T01:49:18;7.18;;;3.13;;
69334;SDS011;56477;52.742;15.242;2022-08-21T01:51:44;8.30;;;3.42;;
69334;SDS011;56477;52.742;15.242;2022-08-21T01:54:11;4.80;;;2.70;;
69334;SDS011;56477;52.742;15.242;2022-08-21T01:56:41;5.15;;;3.00;;
69334;SDS011;56477;52.742;15.242;2022-08-21T01:59:10;16.73;;;3.60;;
69334;SDS011;56477;52.742;15.242;2022-08-21T02:01:36;8.40;;;2.90;;
69334;SDS011;56477;52.742;15.242;2022-08-21T02:04:05;5.43;;;2.75;;
69334;SDS011;56477;52.742;15.242;2022-08-21T02:06:32;7.93;;;2.72;;
69334;SDS011;56477;52.742;15.242;2022-08-21T02:08:58;4.90;;;2.50;;
69334;SDS011;56477;52.742;15.242;2022-08-21T02:11:24;6.13;;;3.00;;
69334;SDS011;56477;52.742;15.242;2022-08-21T02:13:51;7.18;;;2.53;;
69334;SDS011;56477;52.742;15.242;2022-08-21T02:16:17;5.57;;;2.40;;
69334;SDS011;56477;52.742;15.242;2022-08-21T02:18:43;6.17;;;2.77;;
69334;SDS011;56477;52.742;15.242;2022-08-21T02:21:09;6.47;;;2.95;;
69334;SDS011;56477;52.742;15.242;2022-08-21T02:23:35;7.55;;;3.08;;
69334;SDS011;56477;52.742;15.242;2022-08-21T02:26:02;7.65;;;2.80;;
69334;SDS011;56477;52.742;15.242;2022-08-21T02:28:30;6.53;;;3.17;;
69334;SDS011;56477;52.742;15.242;2022-08-21T02:30:56;7.10;;;3.33;;
69334;SDS011;56477;52.742;15.242;2022-08-21T02:33:23;7.32;;;2.80;;
69334;SDS011;56477;52.742;15.242;2022-08-21T02:35:50;6.82;;;3.47;;
69334;SDS011;56477;52.742;15.242;2022-08-21T02:38:19;5.95;;;3.17;;
69334;SDS011;56477;52.742;15.242;2022-08-21T02:40:47;5.97;;;3.25;;
69334;SDS011;56477;52.742;15.242;2022-08-21T02:43:14;8.13;;;3.03;;
69334;SDS011;56477;52.742;15.242;2022-08-21T02:45:42;6.07;;;2.97;;
69334;SDS011;56477;52.742;15.242;2022-08-21T02:48:09;8.45;;;2.97;;
69334;SDS011;56477;52.742;15.242;2022-08-21T02:50:38;8.63;;;2.80;;
69334;SDS011;56477;52.742;15.242;2022-08-21T02:53:08;5.65;;;2.92;;
69334;SDS011;56477;52.742;15.242;2022-08-21T02:55:36;10.77;;;3.00;;
69334;SDS011;56477;52.742;15.242;2022-08-21T02:58:03;7.07;;;2.83;;
69334;SDS011;56477;52.742;15.242;2022-08-21T03:00:31;8.20;;;2.65;;
69334;SDS011;56477;52.742;15.242;2022-08-21T03:02:58;4.97;;;2.83;;
69334;SDS011;56477;52.742;15.242;2022-08-21T03:05:25;6.68;;;2.67;;
69334;SDS011;56477;52.742;15.242;2022-08-21T03:07:52;8.93;;;2.90;;
69334;SDS011;56477;52.742;15.242;2022-08-21T03:10:19;11.57;;;2.85;;
69334;SDS011;56477;52.742;15.242;2022-08-21T03:12:47;6.85;;;3.17;;
69334;SDS011;56477;52.742;15.242;2022-08-21T03:15:15;9.07;;;3.17;;
69334;SDS011;56477;52.742;15.242;2022-08-21T03:17:43;4.90;;;3.00;;
69334;SDS011;56477;52.742;15.242;2022-08-21T03:20:10;6.80;;;3.17;;
69334;SDS011;56477;52.742;15.242;2022-08-21T03:22:36;8.48;;;3.30;;
69334;SDS011;56477;52.742;15.242;2022-08-21T03:25:02;7.13;;;3.08;;
69334;SDS011;56477;52.742;15.242;2022-08-21T03:27:29;6.75;;;3.38;;
69334;SDS011;56477;52.742;15.242;2022-08-21T03:29:56;8.07;;;3.13;;
69334;SDS011;56477;52.742;15.242;2022-08-21T03:32:23;7.32;;;3.45;;
69334;SDS011;56477;52.742;15.242;2022-08-21T03:34:49;6.10;;;3.47;;
69334;SDS011;56477;52.742;15.242;2022-08-21T03:37:15;9.02;;;3.17;;
69334;SDS011;56477;52.742;15.242;2022-08-21T03:39:41;9.23;;;3.40;;
69334;SDS011;56477;52.742;15.242;2022-08-21T03:42:07;8.93;;;3.47;;
69334;SDS011;56477;52.742;15.242;2022-08-21T03:44:34;10.02;;;3.92;;
69334;SDS011;56477;52.742;15.242;2022-08-21T03:47:00;8.75;;;3.40;;
69334;SDS011;56477;52.742;15.242;2022-08-21T03:49:26;13.20;;;3.50;;
69334;SDS011;56477;52.742;15.242;2022-08-21T03:51:53;7.05;;;3.65;;
69334;SDS011;56477;52.742;15.242;2022-08-21T03:54:19;7.95;;;3.67;;
69334;SDS011;56477;52.742;15.242;2022-08-21T03:56:45;8.98;;;3.83;;
69334;SDS011;56477;52.742;15.242;2022-08-21T03:59:11;9.23;;;4.28;;
69334;SDS011;56477;52.742;15.242;2022-08-21T04:01:37;8.00;;;3.60;;
69334;SDS011;56477;52.742;15.242;2022-08-21T04:04:04;9.50;;;3.33;;
69334;SDS011;56477;52.742;15.242;2022-08-21T04:06:31;11.23;;;4.25;;
69334;SDS011;56477;52.742;15.242;2022-08-21T04:08:57;9.45;;;3.58;;
69334;SDS011;56477;52.742;15.242;2022-08-21T04:11:23;7.57;;;3.30;;
69334;SDS011;56477;52.742;15.242;2022-08-21T04:13:50;13.40;;;4.05;;
69334;SDS011;56477;52.742;15.242;2022-08-21T04:16:15;10.60;;;3.97;;
69334;SDS011;56477;52.742;15.242;2022-08-21T04:18:41;9.85;;;3.92;;
69334;SDS011;56477;52.742;15.242;2022-08-21T04:21:08;7.13;;;3.50;;
69334;SDS011;56477;52.742;15.242;2022-08-21T04:23:36;9.00;;;4.00;;
69334;SDS011;56477;52.742;15.242;2022-08-21T04:26:02;7.95;;;3.70;;
69334;SDS011;56477;52.742;15.242;2022-08-21T04:28:28;9.35;;;3.47;;
69334;SDS011;56477;52.742;15.242;2022-08-21T04:30:54;10.20;;;3.70;;
69334;SDS011;56477;52.742;15.242;2022-08-21T04:33:21;10.25;;;4.28;;
69334;SDS011;56477;52.742;15.242;2022-08-21T04:35:48;7.10;;;3.60;;
69334;SDS011;56477;52.742;15.242;2022-08-21T04:38:14;8.88;;;3.63;;
69334;SDS011;56477;52.742;15.242;2022-08-21T04:40:40;8.45;;;3.15;;
69334;SDS011;56477;52.742;15.242;2022-08-21T04:43:08;8.10;;;3.45;;
69334;SDS011;56477;52.742;15.242;2022-08-21T04:45:36;9.87;;;4.00;;
69334;SDS011;56477;52.742;15.242;2022-08-21T04:48:06;10.50;;;4.00;;
69334;SDS011;56477;52.742;15.242;2022-08-21T04:50:39;9.70;;;3.45;;
69334;SDS011;56477;52.742;15.242;2022-08-21T04:53:12;7.85;;;3.33;;
69334;SDS011;56477;52.742;15.242;2022-08-21T04:55:45;5.75;;;3.60;;
69334;SDS011;56477;52.742;15.242;2022-08-21T04:58:12;9.73;;;4.43;;
69334;SDS011;56477;52.742;15.242;2022-08-21T05:00:42;8.73;;;3.97;;
69334;SDS011;56477;52.742;15.242;2022-08-21T05:03:10;10.10;;;3.90;;
69334;SDS011;56477;52.742;15.242;2022-08-21T05:05:37;9.52;;;4.13;;
69334;SDS011;56477;52.742;15.242;2022-08-21T05:08:05;8.15;;;4.40;;
69334;SDS011;56477;52.742;15.242;2022-08-21T05:10:34;13.77;;;4.40;;
69334;SDS011;56477;52.742;15.242;2022-08-21T05:12:59;8.75;;;3.65;;
69334;SDS011;56477;52.742;15.242;2022-08-21T05:15:26;9.02;;;4.55;;
69334;SDS011;56477;52.742;15.242;2022-08-21T05:17:52;9.07;;;3.70;;
69334;SDS011;56477;52.742;15.242;2022-08-21T05:20:18;9.17;;;4.00;;
69334;SDS011;56477;52.742;15.242;2022-08-21T05:22:45;9.40;;;3.95;;
69334;SDS011;56477;52.742;15.242;2022-08-21T05:25:11;10.38;;;4.00;;
69334;SDS011;56477;52.742;15.242;2022-08-21T05:27:37;9.70;;;4.00;;
69334;SDS011;56477;52.742;15.242;2022-08-21T05:30:04;9.93;;;4.43;;
69334;SDS011;56477;52.742;15.242;2022-08-21T05:32:33;9.35;;;4.10;;
69334;SDS011;56477;52.742;15.242;2022-08-21T05:34:59;8.38;;;3.88;;
69334;SDS011;56477;52.742;15.242;2022-08-21T05:37:25;8.30;;;4.03;;
69334;SDS011;56477;52.742;15.242;2022-08-21T05:39:51;6.83;;;3.23;;
69334;SDS011;56477;52.742;15.242;2022-08-21T05:42:17;9.68;;;3.85;;
69334;SDS011;56477;52.742;15.242;2022-08-21T05:44:43;11.80;;;3.70;;
69334;SDS011;56477;52.742;15.242;2022-08-21T05:47:09;7.13;;;3.40;;
69334;SDS011;56477;52.742;15.242;2022-08-21T05:49:37;8.40;;;3.80;;
69334;SDS011;56477;52.742;15.242;2022-08-21T05:52:03;9.30;;;4.05;;
69334;SDS011;56477;52.742;15.242;2022-08-21T05:54:30;8.02;;;3.25;;
69334;SDS011;56477;52.742;15.242;2022-08-21T05:56:56;7.25;;;3.53;;
69334;SDS011;56477;52.742;15.242;2022-08-21T05:59:22;8.93;;;3.30;;
69334;SDS011;56477;52.742;15.242;2022-08-21T06:01:48;9.05;;;3.25;;
69334;SDS011;56477;52.742;15.242;2022-08-21T06:04:15;8.52;;;3.70;;
69334;SDS011;56477;52.742;15.242;2022-08-21T06:06:41;12.52;;;3.95;;
69334;SDS011;56477;52.742;15.242;2022-08-21T06:09:07;8.43;;;3.85;;
69334;SDS011;56477;52.742;15.242;2022-08-21T06:11:33;6.13;;;3.17;;
69334;SDS011;56477;52.742;15.242;2022-08-21T06:13:59;6.95;;;3.38;;
69334;SDS011;56477;52.742;15.242;2022-08-21T06:16:26;6.90;;;3.58;;
69334;SDS011;56477;52.742;15.242;2022-08-21T06:18:53;7.85;;;3.22;;
69334;SDS011;56477;52.742;15.242;2022-08-21T06:21:19;9.57;;;3.70;;
69334;SDS011;56477;52.742;15.242;2022-08-21T06:23:45;9.43;;;3.50;;
69334;SDS011;56477;52.742;15.242;2022-08-21T06:26:12;10.13;;;3.40;;
69334;SDS011;56477;52.742;15.242;2022-08-21T06:28:39;10.52;;;4.10;;
69334;SDS011;56477;52.742;15.242;2022-08-21T06:31:10;6.77;;;3.33;;
69334;SDS011;56477;52.742;15.242;2022-08-21T06:33:42;11.02;;;3.70;;
69334;SDS011;56477;52.742;15.242;2022-08-21T06:36:08;7.07;;;3.50;;
69334;SDS011;56477;52.742;15.242;2022-08-21T06:38:35;10.20;;;3.95;;
69334;SDS011;56477;52.742;15.242;2022-08-21T06:41:01;8.60;;;4.03;;
69334;SDS011;56477;52.742;15.242;2022-08-21T06:43:28;9.33;;;4.10;;
69334;SDS011;56477;52.742;15.242;2022-08-21T06:45:54;12.18;;;4.35;;
69334;SDS011;56477;52.742;15.242;2022-08-21T06:48:20;10.98;;;4.00;;
69334;SDS011;56477;52.742;15.242;2022-08-21T06:50:47;8.88;;;4.20;;
69334;SDS011;56477;52.742;15.242;2022-08-21T06:53:14;8.80;;;4.63;;
69334;SDS011;56477;52.742;15.242;2022-08-21T06:55:41;8.10;;;4.20;;
69334;SDS011;56477;52.742;15.242;2022-08-21T06:58:09;8.57;;;4.68;;
69334;SDS011;56477;52.742;15.242;2022-08-21T07:00:37;8.98;;;5.00;;
69334;SDS011;56477;52.742;15.242;2022-08-21T07:03:05;13.18;;;4.05;;
69334;SDS011;56477;52.742;15.242;2022-08-21T07:05:32;11.25;;;4.47;;
69334;SDS011;56477;52.742;15.242;2022-08-21T07:07:58;10.27;;;4.50;;
69334;SDS011;56477;52.742;15.242;2022-08-21T07:10:25;9.00;;;4.72;;
69334;SDS011;56477;52.742;15.242;2022-08-21T07:12:52;8.70;;;4.07;;
69334;SDS011;56477;52.742;15.242;2022-08-21T07:15:19;11.18;;;5.40;;
69334;SDS011;56477;52.742;15.242;2022-08-21T07:17:45;8.03;;;4.73;;
69334;SDS011;56477;52.742;15.242;2022-08-21T07:20:11;9.40;;;4.67;;
69334;SDS011;56477;52.742;15.242;2022-08-21T07:22:37;10.73;;;5.13;;
69334;SDS011;56477;52.742;15.242;2022-08-21T07:25:04;9.98;;;5.70;;
69334;SDS011;56477;52.742;15.242;2022-08-21T07:27:31;8.98;;;4.82;;
69334;SDS011;56477;52.742;15.242;2022-08-21T07:29:57;9.20;;;5.20;;
69334;SDS011;56477;52.742;15.242;2022-08-21T07:32:23;10.05;;;5.72;;
69334;SDS011;56477;52.742;15.242;2022-08-21T07:34:50;9.60;;;5.65;;
69334;SDS011;56477;52.742;15.242;2022-08-21T07:37:16;12.07;;;6.05;;
69334;SDS011;56477;52.742;15.242;2022-08-21T07:39:41;8.17;;;4.83;;
69334;SDS011;56477;52.742;15.242;2022-08-21T07:42:08;12.38;;;6.05;;
69334;SDS011;56477;52.742;15.242;2022-08-21T07:44:35;12.40;;;5.90;;
69334;SDS011;56477;52.742;15.242;2022-08-21T07:47:01;10.70;;;5.93;;
69334;SDS011;56477;52.742;15.242;2022-08-21T07:49:27;10.73;;;5.10;;
69334;SDS011;56477;52.742;15.242;2022-08-21T07:51:53;8.43;;;4.93;;
69334;SDS011;56477;52.742;15.242;2022-08-21T07:54:20;9.57;;;5.53;;
69334;SDS011;56477;52.742;15.242;2022-08-21T07:56:46;9.50;;;5.07;;
69334;SDS011;56477;52.742;15.242;2022-08-21T07:59:12;9.63;;;5.60;;
69334;SDS011;56477;52.742;15.242;2022-08-21T08:01:38;15.18;;;5.30;;
69334;SDS011;56477;52.742;15.242;2022-08-21T08:04:04;11.98;;;5.75;;
69334;SDS011;56477;52.742;15.242;2022-08-21T08:06:30;9.52;;;5.10;;
69334;SDS011;56477;52.742;15.242;2022-08-21T08:08:55;10.07;;;5.20;;
69334;SDS011;56477;52.742;15.242;2022-08-21T08:11:22;10.93;;;4.80;;
69334;SDS011;56477;52.742;15.242;2022-08-21T08:13:49;11.00;;;5.43;;
69334;SDS011;56477;52.742;15.242;2022-08-21T08:16:16;11.35;;;5.00;;
69334;SDS011;56477;52.742;15.242;2022-08-21T08:18:42;7.40;;;4.00;;
69334;SDS011;56477;52.742;15.242;2022-08-21T08:21:10;10.65;;;5.05;;
69334;SDS011;56477;52.742;15.242;2022-08-21T08:23:36;10.07;;;4.72;;
69334;SDS011;56477;52.742;15.242;2022-08-21T08:26:02;16.30;;;5.75;;
69334;SDS011;56477;52.742;15.242;2022-08-21T08:28:29;8.85;;;4.80;;
69334;SDS011;56477;52.742;15.242;2022-08-21T08:30:57;9.60;;;4.60;;
69334;SDS011;56477;52.742;15.242;2022-08-21T08:33:24;13.05;;;5.18;;
69334;SDS011;56477;52.742;15.242;2022-08-21T08:35:50;9.45;;;4.88;;
69334;SDS011;56477;52.742;15.242;2022-08-21T08:38:18;10.73;;;4.80;;
69334;SDS011;56477;52.742;15.242;2022-08-21T08:40:47;12.57;;;5.53;;
69334;SDS011;56477;52.742;15.242;2022-08-21T08:43:37;11.57;;;5.37;;
69334;SDS011;56477;52.742;15.242;2022-08-21T08:46:04;13.20;;;4.95;;
69334;SDS011;56477;52.742;15.242;2022-08-21T08:48:46;10.07;;;4.90;;
69334;SDS011;56477;52.742;15.242;2022-08-21T08:51:22;10.02;;;5.03;;
69334;SDS011;56477;52.742;15.242;2022-08-21T08:54:02;8.43;;;4.63;;
69334;SDS011;56477;52.742;15.242;2022-08-21T08:56:34;9.50;;;5.40;;
69334;SDS011;56477;52.742;15.242;2022-08-21T08:59:08;9.73;;;5.10;;
69334;SDS011;56477;52.742;15.242;2022-08-21T09:01:40;9.93;;;4.80;;
69334;SDS011;56477;52.742;15.242;2022-08-21T09:04:07;11.60;;;4.97;;
69334;SDS011;56477;52.742;15.242;2022-08-21T09:15:23;20.10;;;10.48;;
69334;SDS011;56477;52.742;15.242;2022-08-21T09:18:08;19.30;;;7.47;;
69334;SDS011;56477;52.742;15.242;2022-08-21T09:26:19;9.87;;;4.70;;
69334;SDS011;56477;52.742;15.242;2022-08-21T09:28:51;12.40;;;5.38;;
69334;SDS011;56477;52.742;15.242;2022-08-21T09:31:24;10.10;;;5.00;;
69334;SDS011;56477;52.742;15.242;2022-08-21T09:34:00;8.48;;;4.80;;
69334;SDS011;56477;52.742;15.242;2022-08-21T09:36:39;11.30;;;5.10;;
69334;SDS011;56477;52.742;15.242;2022-08-21T09:39:07;10.23;;;5.20;;
69334;SDS011;56477;52.742;15.242;2022-08-21T09:41:36;8.93;;;5.03;;
69334;SDS011;56477;52.742;15.242;2022-08-21T09:44:04;10.02;;;4.68;;
69334;SDS011;56477;52.742;15.242;2022-08-21T09:46:31;10.25;;;4.60;;
69334;SDS011;56477;52.742;15.242;2022-08-21T09:48:58;8.68;;;4.88;;
69334;SDS011;56477;52.742;15.242;2022-08-21T09:51:28;8.33;;;5.20;;
69334;SDS011;56477;52.742;15.242;2022-08-21T09:56:37;11.23;;;5.55;;
69334;SDS011;56477;52.742;15.242;2022-08-21T09:59:28;11.90;;;6.05;;
69334;SDS011;56477;52.742;15.242;2022-08-21T10:01:59;10.27;;;5.10;;
69334;SDS011;56477;52.742;15.242;2022-08-21T10:04:29;14.03;;;5.37;;
69334;SDS011;56477;52.742;15.242;2022-08-21T10:07:11;7.80;;;4.38;;
69334;SDS011;56477;52.742;15.242;2022-08-21T10:09:39;7.28;;;4.38;;
69334;SDS011;56477;52.742;15.242;2022-08-21T10:15:39;8.50;;;4.67;;
69334;SDS011;56477;52.742;15.242;2022-08-21T10:17:45;6.88;;;4.18;;
69334;SDS011;56477;52.742;15.242;2022-08-21T10:20:21;6.63;;;4.38;;
69334;SDS011;56477;52.742;15.242;2022-08-21T10:23:10;7.57;;;4.13;;
69334;SDS011;56477;52.742;15.242;2022-08-21T10:25:43;9.25;;;4.00;;
69334;SDS011;56477;52.742;15.242;2022-08-21T10:29:00;7.77;;;3.87;;
69334;SDS011;56477;52.742;15.242;2022-08-21T10:31:27;6.37;;;3.40;;
69334;SDS011;56477;52.742;15.242;2022-08-21T10:36:37;9.70;;;4.30;;
69334;SDS011;56477;52.742;15.242;2022-08-21T10:47:48;6.88;;;3.67;;
69334;SDS011;56477;52.742;15.242;2022-08-21T10:55:56;4.57;;;3.03;;
69334;SDS011;56477;52.742;15.242;2022-08-21T10:58:31;6.90;;;3.23;;
69334;SDS011;56477;52.742;15.242;2022-08-21T11:01:23;6.18;;;3.70;;
69334;SDS011;56477;52.742;15.242;2022-08-21T11:03:54;7.80;;;3.53;;
69334;SDS011;56477;52.742;15.242;2022-08-21T11:06:47;7.68;;;4.03;;
69334;SDS011;56477;52.742;15.242;2022-08-21T11:09:22;6.72;;;3.80;;
69334;SDS011;56477;52.742;15.242;2022-08-21T11:11:58;6.03;;;3.20;;
69334;SDS011;56477;52.742;15.242;2022-08-21T11:17:27;7.20;;;3.80;;
69334;SDS011;56477;52.742;15.242;2022-08-21T11:20:09;6.50;;;3.70;;
69334;SDS011;56477;52.742;15.242;2022-08-21T11:22:54;6.70;;;3.13;;
69334;SDS011;56477;52.742;15.242;2022-08-21T11:25:47;7.83;;;3.47;;
69334;SDS011;56477;52.742;15.242;2022-08-21T11:28:22;7.23;;;3.43;;
69334;SDS011;56477;52.742;15.242;2022-08-21T11:39:22;4.63;;;3.20;;
69334;SDS011;56477;52.742;15.242;2022-08-21T11:42:00;6.23;;;2.90;;
69334;SDS011;56477;52.742;15.242;2022-08-21T11:47:18;4.30;;;2.65;;
69334;SDS011;56477;52.742;15.242;2022-08-21T11:52:42;6.25;;;2.95;;
69334;SDS011;56477;52.742;15.242;2022-08-21T11:55:19;4.40;;;2.20;;
69334;SDS011;56477;52.742;15.242;2022-08-21T11:58:02;5.47;;;2.50;;
69334;SDS011;56477;52.742;15.242;2022-08-21T12:05:56;4.22;;;2.60;;
69334;SDS011;56477;52.742;15.242;2022-08-21T12:08:35;6.22;;;2.65;;
69334;SDS011;56477;52.742;15.242;2022-08-21T12:13:56;4.50;;;2.00;;
69334;SDS011;56477;52.742;15.242;2022-08-21T12:16:40;3.90;;;2.33;;
69334;SDS011;56477;52.742;15.242;2022-08-21T12:24:47;5.10;;;2.33;;
69334;SDS011;56477;52.742;15.242;2022-08-21T12:29:46;3.15;;;1.80;;
69334;SDS011;56477;52.742;15.242;2022-08-21T12:34:42;4.85;;;1.77;;
69334;SDS011;56477;52.742;15.242;2022-08-21T12:39:39;6.60;;;2.33;;
69334;SDS011;56477;52.742;15.242;2022-08-21T12:42:17;5.03;;;2.05;;
69334;SDS011;56477;52.742;15.242;2022-08-21T12:45:31;4.70;;;2.55;;
69334;SDS011;56477;52.742;15.242;2022-08-21T12:50:41;4.17;;;1.80;;
69334;SDS011;56477;52.742;15.242;2022-08-21T12:55:52;5.70;;;2.08;;
69334;SDS011;56477;52.742;15.242;2022-08-21T12:58:23;7.53;;;2.85;;
69334;SDS011;56477;52.742;15.242;2022-08-21T13:00:58;5.38;;;2.20;;
69334;SDS011;56477;52.742;15.242;2022-08-21T13:03:28;3.35;;;1.52;;
69334;SDS011;56477;52.742;15.242;2022-08-21T13:05:55;4.23;;;2.00;;
69334;SDS011;56477;52.742;15.242;2022-08-21T13:08:21;4.20;;;1.60;;
69334;SDS011;56477;52.742;15.242;2022-08-21T13:10:49;4.25;;;1.95;;
69334;SDS011;56477;52.742;15.242;2022-08-21T13:13:24;4.70;;;1.90;;
69334;SDS011;56477;52.742;15.242;2022-08-21T13:15:56;3.85;;;1.80;;
69334;SDS011;56477;52.742;15.242;2022-08-21T13:18:26;3.10;;;2.03;;
69334;SDS011;56477;52.742;15.242;2022-08-21T13:21:09;3.60;;;1.70;;
69334;SDS011;56477;52.742;15.242;2022-08-21T13:23:37;5.15;;;1.48;;
69334;SDS011;56477;52.742;15.242;2022-08-21T13:26:13;4.78;;;1.63;;
69334;SDS011;56477;52.742;15.242;2022-08-21T13:28:45;3.17;;;1.20;;
69334;SDS011;56477;52.742;15.242;2022-08-21T13:31:16;4.60;;;2.38;;
69334;SDS011;56477;52.742;15.242;2022-08-21T13:33:45;4.93;;;1.73;;
69334;SDS011;56477;52.742;15.242;2022-08-21T13:36:46;3.13;;;1.73;;
69334;SDS011;56477;52.742;15.242;2022-08-21T13:39:07;3.95;;;1.73;;
69334;SDS011;56477;52.742;15.242;2022-08-21T13:41:36;4.32;;;1.65;;
69334;SDS011;56477;52.742;15.242;2022-08-21T13:44:06;3.67;;;1.70;;
69334;SDS011;56477;52.742;15.242;2022-08-21T13:46:41;4.10;;;1.70;;
69334;SDS011;56477;52.742;15.242;2022-08-21T13:49:09;5.50;;;1.67;;
69334;SDS011;56477;52.742;15.242;2022-08-21T13:51:36;4.85;;;1.55;;
69334;SDS011;56477;52.742;15.242;2022-08-21T13:54:13;4.50;;;1.80;;
69334;SDS011;56477;52.742;15.242;2022-08-21T13:56:47;4.18;;;1.88;;
69334;SDS011;56477;52.742;15.242;2022-08-21T13:59:23;3.33;;;1.55;;
69334;SDS011;56477;52.742;15.242;2022-08-21T14:01:52;4.10;;;1.93;;
69334;SDS011;56477;52.742;15.242;2022-08-21T14:04:22;5.43;;;1.60;;
69334;SDS011;56477;52.742;15.242;2022-08-21T14:06:51;4.03;;;1.90;;
69334;SDS011;56477;52.742;15.242;2022-08-21T14:11:56;4.90;;;1.88;;
69334;SDS011;56477;52.742;15.242;2022-08-21T14:14:29;2.95;;;1.90;;
69334;SDS011;56477;52.742;15.242;2022-08-21T14:17:01;4.70;;;1.80;;
69334;SDS011;56477;52.742;15.242;2022-08-21T14:22:22;4.47;;;2.25;;
69334;SDS011;56477;52.742;15.242;2022-08-21T14:27:33;3.42;;;1.95;;
69334;SDS011;56477;52.742;15.242;2022-08-21T14:30:18;6.80;;;2.10;;
69334;SDS011;56477;52.742;15.242;2022-08-21T14:32:59;4.87;;;2.47;;
69334;SDS011;56477;52.742;15.242;2022-08-21T14:35:26;4.13;;;2.20;;
69334;SDS011;56477;52.742;15.242;2022-08-21T14:37:52;4.38;;;1.90;;
69334;SDS011;56477;52.742;15.242;2022-08-21T14:40:20;4.97;;;2.00;;
69334;SDS011;56477;52.742;15.242;2022-08-21T14:42:47;4.95;;;1.90;;
69334;SDS011;56477;52.742;15.242;2022-08-21T14:45:18;3.93;;;1.77;;
69334;SDS011;56477;52.742;15.242;2022-08-21T14:47:51;4.40;;;2.00;;
69334;SDS011;56477;52.742;15.242;2022-08-21T14:50:17;6.80;;;2.00;;
69334;SDS011;56477;52.742;15.242;2022-08-21T14:52:43;3.97;;;1.60;;
69334;SDS011;56477;52.742;15.242;2022-08-21T14:55:11;3.55;;;1.50;;
69334;SDS011;56477;52.742;15.242;2022-08-21T14:57:42;3.47;;;1.50;;
69334;SDS011;56477;52.742;15.242;2022-08-21T15:00:13;2.67;;;1.60;;
69334;SDS011;56477;52.742;15.242;2022-08-21T15:02:42;5.57;;;1.90;;
69334;SDS011;56477;52.742;15.242;2022-08-21T15:05:08;3.22;;;1.77;;
69334;SDS011;56477;52.742;15.242;2022-08-21T15:07:35;5.10;;;1.80;;
69334;SDS011;56477;52.742;15.242;2022-08-21T15:10:01;5.45;;;1.88;;
69334;SDS011;56477;52.742;15.242;2022-08-21T15:12:28;4.88;;;2.20;;
69334;SDS011;56477;52.742;15.242;2022-08-21T15:14:54;5.97;;;2.08;;
69334;SDS011;56477;52.742;15.242;2022-08-21T15:17:20;5.17;;;2.47;;
69334;SDS011;56477;52.742;15.242;2022-08-21T15:19:46;5.63;;;2.28;;
69334;SDS011;56477;52.742;15.242;2022-08-21T15:22:12;4.25;;;2.13;;
69334;SDS011;56477;52.742;15.242;2022-08-21T15:24:38;4.25;;;1.80;;
69334;SDS011;56477;52.742;15.242;2022-08-21T15:27:06;3.83;;;1.77;;
69334;SDS011;56477;52.742;15.242;2022-08-21T15:29:33;4.20;;;1.90;;
69334;SDS011;56477;52.742;15.242;2022-08-21T15:32:01;7.07;;;1.77;;
69334;SDS011;56477;52.742;15.242;2022-08-21T15:34:49;5.30;;;2.67;;
69334;SDS011;56477;52.742;15.242;2022-08-21T15:37:16;4.65;;;1.45;;
69334;SDS011;56477;52.742;15.242;2022-08-21T15:39:42;6.25;;;2.05;;
69334;SDS011;56477;52.742;15.242;2022-08-21T15:42:09;6.53;;;2.13;;
69334;SDS011;56477;52.742;15.242;2022-08-21T15:44:36;4.77;;;1.70;;
69334;SDS011;56477;52.742;15.242;2022-08-21T15:47:04;4.30;;;2.10;;
69334;SDS011;56477;52.742;15.242;2022-08-21T15:49:30;3.83;;;1.75;;
69334;SDS011;56477;52.742;15.242;2022-08-21T15:51:56;4.15;;;1.95;;
69334;SDS011;56477;52.742;15.242;2022-08-21T15:54:22;4.28;;;2.00;;
69334;SDS011;56477;52.742;15.242;2022-08-21T15:56:48;4.70;;;1.80;;
69334;SDS011;56477;52.742;15.242;2022-08-21T15:59:17;5.33;;;1.70;;
69334;SDS011;56477;52.742;15.242;2022-08-21T16:01:47;7.47;;;1.83;;
69334;SDS011;56477;52.742;15.242;2022-08-21T16:04:17;5.13;;;2.13;;
69334;SDS011;56477;52.742;15.242;2022-08-21T16:06:48;3.42;;;1.48;;
69334;SDS011;56477;52.742;15.242;2022-08-21T16:09:14;4.10;;;2.28;;
69334;SDS011;56477;52.742;15.242;2022-08-21T16:11:41;5.18;;;1.90;;
69334;SDS011;56477;52.742;15.242;2022-08-21T16:14:08;5.70;;;1.70;;